createdAt,value
2019-03-29T00:00:48.223Z,100704.48
2019-03-29T00:03:14.368Z,100701.79
2019-03-29T00:05:40.552Z,100697.75
2019-03-29T00:08:06.715Z,100701.97
2019-03-29T00:10:32.863Z,100703.63
2019-03-29T00:12:59.475Z,100707.35
2019-03-29T00:15:25.630Z,100704.30
2019-03-29T00:17:51.888Z,100707.06
2019-03-29T00:20:18.099Z,100697.41
2019-03-29T00:22:44.254Z,100694.74
2019-03-29T00:25:10.506Z,100688.84
2019-03-29T00:27:36.698Z,100691.55
2019-03-29T00:30:04.554Z,100688.17
2019-03-29T00:32:31.252Z,100688.30
2019-03-29T00:34:58.298Z,100688.86
2019-03-29T00:37:24.455Z,100690.86
2019-03-29T00:39:50.610Z,100688.67
2019-03-29T00:42:17.158Z,100691.20
2019-03-29T00:44:43.555Z,100683.12
2019-03-29T00:47:09.750Z,100681.26
2019-03-29T00:49:36.066Z,100681.73
2019-03-29T00:52:02.218Z,100678.69
2019-03-29T00:54:28.395Z,100679.54
2019-03-29T00:56:54.569Z,100679.72
2019-03-29T00:59:20.723Z,100676.50
2019-03-29T01:01:46.877Z,100679.87
2019-03-29T01:04:13.070Z,100676.00
2019-03-29T01:06:39.491Z,100676.34
2019-03-29T01:09:05.674Z,100678.19
2019-03-29T01:11:31.863Z,100669.62
2019-03-29T01:13:58.028Z,100674.83
2019-03-29T01:16:24.200Z,100675.17
2019-03-29T01:18:50.391Z,100672.97
2019-03-29T01:21:16.548Z,100670.95
2019-03-29T01:23:42.699Z,100664.02
2019-03-29T01:26:08.992Z,100669.27
2019-03-29T01:28:35.139Z,100664.02
2019-03-29T01:31:01.299Z,100662.34
2019-03-29T01:33:27.484Z,100660.83
2019-03-29T01:35:53.644Z,100666.42
2019-03-29T01:38:22.072Z,100653.77
2019-03-29T01:40:47.888Z,100653.06
2019-03-29T01:43:14.047Z,100663.52
2019-03-29T01:45:40.204Z,100663.17
2019-03-29T01:48:06.398Z,100663.52
2019-03-29T01:50:33.051Z,100663.81
2019-03-29T01:52:59.212Z,100664.51
2019-03-29T01:55:25.402Z,100662.12
2019-03-29T01:57:51.559Z,100669.50
2019-03-29T02:00:21.309Z,100664.80
2019-03-29T02:02:47.489Z,100663.06
2019-03-29T02:05:13.643Z,100664.31
2019-03-29T02:07:39.799Z,100666.20
2019-03-29T02:10:07.820Z,100660.77
2019-03-29T02:12:34.217Z,100660.19
2019-03-29T02:15:00.368Z,100659.84
2019-03-29T02:17:26.540Z,100662.23
2019-03-29T02:19:52.710Z,100663.66
2019-03-29T02:22:18.853Z,100661.55
2019-03-29T02:24:45.047Z,100666.14
2019-03-29T02:27:11.199Z,100668.53
2019-03-29T02:29:37.539Z,100671.84
2019-03-29T02:32:03.737Z,100678.09
2019-03-29T02:34:29.881Z,100679.61
2019-03-29T02:36:56.034Z,100670.58
2019-03-29T02:39:22.228Z,100682.86
2019-03-29T02:41:48.377Z,100682.14
2019-03-29T02:44:14.533Z,100677.27
2019-03-29T02:46:40.731Z,100672.84
2019-03-29T02:49:06.990Z,100669.74
2019-03-29T02:51:33.737Z,100676.82
2019-03-29T02:53:59.927Z,100672.81
2019-03-29T02:56:26.095Z,100670.51
2019-03-29T02:58:52.250Z,100677.11
2019-03-29T03:01:18.433Z,100676.64
2019-03-29T03:03:44.582Z,100664.74
2019-03-29T03:06:10.853Z,100673.39
2019-03-29T03:08:37.035Z,100671.63
2019-03-29T03:11:03.718Z,100671.25
2019-03-29T03:13:29.952Z,100676.55
2019-03-29T03:15:56.274Z,100669.62
2019-03-29T03:18:22.693Z,100675.05
2019-03-29T03:20:48.848Z,100669.51
2019-03-29T03:23:15.037Z,100674.77
2019-03-29T03:25:41.191Z,100677.11
2019-03-29T03:28:07.454Z,100679.14
2019-03-29T03:30:33.652Z,100685.16
2019-03-29T03:32:59.916Z,100687.11
2019-03-29T03:35:26.084Z,100690.34
2019-03-29T03:37:52.254Z,100698.52
2019-03-29T03:40:18.393Z,100691.98
2019-03-29T03:42:44.570Z,100694.84
2019-03-29T03:45:10.761Z,100697.61
2019-03-29T03:47:38.418Z,100694.75
2019-03-29T03:50:06.396Z,100704.00
2019-03-29T03:52:32.602Z,100705.30
2019-03-29T03:54:58.770Z,100712.73
2019-03-29T03:57:25.730Z,100708.84
2019-03-29T03:59:53.813Z,100714.41
2019-03-29T04:02:19.969Z,100721.02
2019-03-29T04:04:46.144Z,100724.39
2019-03-29T04:07:12.453Z,100730.06
2019-03-29T04:09:49.609Z,100734.06
2019-03-29T04:12:06.893Z,100735.97
2019-03-29T04:14:33.093Z,100742.70
2019-03-29T04:16:59.243Z,100748.53
2019-03-29T04:19:25.404Z,100740.98
2019-03-29T04:21:51.679Z,100739.64
2019-03-29T04:24:17.837Z,100748.66
2019-03-29T04:26:43.987Z,100751.73
2019-03-29T04:29:10.177Z,100749.37
2019-03-29T04:31:36.332Z,100753.64
2019-03-29T04:34:02.505Z,100753.67
2019-03-29T04:36:28.683Z,100758.30
2019-03-29T04:38:54.948Z,100764.16
2019-03-29T04:41:21.101Z,100765.77
2019-03-29T04:43:47.279Z,100771.80
2019-03-29T04:46:13.534Z,100775.21
2019-03-29T04:48:39.682Z,100778.16
2019-03-29T04:51:05.875Z,100778.98
2019-03-29T04:53:32.181Z,100783.66
2019-03-29T04:55:58.334Z,100781.56
2019-03-29T04:58:24.514Z,100775.53
2019-03-29T05:00:50.684Z,100779.70
2019-03-29T05:03:16.843Z,100776.52
2019-03-29T05:05:43.042Z,100783.97
2019-03-29T05:08:09.282Z,100782.48
2019-03-29T05:10:35.439Z,100783.07
2019-03-29T05:13:01.620Z,100781.92
2019-03-29T05:15:27.776Z,100784.83
2019-03-29T05:17:53.926Z,100784.25
2019-03-29T05:20:20.236Z,100782.25
2019-03-29T05:22:46.381Z,100785.61
2019-03-29T05:25:12.645Z,100788.64
2019-03-29T05:27:38.863Z,100788.15
2019-03-29T05:30:05.485Z,100783.58
2019-03-29T05:32:31.635Z,100785.77
2019-03-29T05:34:57.831Z,100781.39
2019-03-29T05:37:24.083Z,100782.74
2019-03-29T05:39:50.231Z,100776.47
2019-03-29T05:42:16.511Z,100782.53
2019-03-29T05:44:42.675Z,100784.73
2019-03-29T05:47:08.814Z,100781.98
2019-03-29T05:49:35.035Z,100776.33
2019-03-29T05:52:01.184Z,100770.48
2019-03-29T05:54:27.336Z,100753.89
2019-03-29T05:56:53.639Z,100755.35
2019-03-29T05:59:19.783Z,100751.06
2019-03-29T06:01:45.940Z,100748.17
2019-03-29T06:04:12.234Z,100748.02
2019-03-29T06:06:38.387Z,100758.93
2019-03-29T06:09:04.867Z,100744.62
2019-03-29T06:11:31.050Z,100746.02
2019-03-29T06:13:57.208Z,100754.98
2019-03-29T06:16:23.383Z,100753.63
2019-03-29T06:18:49.909Z,100741.09
2019-03-29T06:21:16.351Z,100738.24
2019-03-29T06:23:42.573Z,100741.30
2019-03-29T06:26:10.036Z,100736.62
2019-03-29T06:28:38.098Z,100737.91
2019-03-29T06:31:04.486Z,100731.84
2019-03-29T06:33:30.695Z,100730.27
2019-03-29T06:35:59.135Z,100733.42
2019-03-29T06:38:28.139Z,100735.89
2019-03-29T06:41:02.746Z,100729.58
2019-03-29T06:43:22.426Z,100728.30
2019-03-29T06:45:48.782Z,100734.72
2019-03-29T06:48:16.522Z,100741.73
2019-03-29T06:50:42.898Z,100743.81
2019-03-29T06:53:09.151Z,100761.31
2019-03-29T06:55:35.636Z,100767.53
2019-03-29T06:58:01.825Z,100770.28
2019-03-29T07:00:28.010Z,100757.60
2019-03-29T07:02:54.210Z,100766.53
2019-03-29T07:05:20.477Z,100761.61
2019-03-29T07:07:46.630Z,100764.88
2019-03-29T07:10:12.828Z,100764.69
2019-03-29T07:12:39.260Z,100765.48
2019-03-29T07:15:05.717Z,100762.18
2019-03-29T07:17:31.906Z,100766.25
2019-03-29T07:19:58.072Z,100768.69
2019-03-29T07:22:25.756Z,100770.57
2019-03-29T07:24:51.935Z,100776.38
2019-03-29T07:27:18.107Z,100779.16
2019-03-29T07:29:44.267Z,100769.52
2019-03-29T07:32:10.463Z,100774.20
2019-03-29T07:34:36.628Z,100776.86
2019-03-29T07:37:05.638Z,100775.17
2019-03-29T07:39:30.898Z,100766.37
2019-03-29T07:41:57.071Z,100763.16
2019-03-29T07:44:23.243Z,100770.57
2019-03-29T07:46:49.440Z,100774.98
2019-03-29T07:49:15.504Z,100772.08
2019-03-29T07:51:41.652Z,100774.95
2019-03-29T07:54:07.869Z,100778.92
2019-03-29T07:56:34.128Z,100769.37
2019-03-29T07:59:00.279Z,100777.87
2019-03-29T08:01:26.468Z,100772.13
2019-03-29T08:03:53.325Z,100766.97
2019-03-29T08:06:19.956Z,100760.21
2019-03-29T08:08:46.139Z,100777.28
2019-03-29T08:11:25.447Z,100767.33
2019-03-29T08:13:40.484Z,100760.25
2019-03-29T08:16:06.837Z,100765.17
2019-03-29T08:18:33.026Z,100759.01
2019-03-29T08:20:59.178Z,100750.73
2019-03-29T08:23:28.610Z,100746.06
2019-03-29T08:25:53.454Z,100746.41
2019-03-29T08:28:19.609Z,100741.70
2019-03-29T08:30:45.795Z,100739.70
2019-03-29T08:33:11.955Z,100749.77
2019-03-29T08:35:38.117Z,100734.85
2019-03-29T08:38:06.229Z,100739.85
2019-03-29T08:40:32.459Z,100734.34
2019-03-29T08:42:58.617Z,100734.43
2019-03-29T08:45:24.911Z,100725.34
2019-03-29T08:47:51.110Z,100714.33
2019-03-29T08:50:17.262Z,100711.92
2019-03-29T08:52:43.494Z,100704.81
2019-03-29T08:55:11.073Z,100708.11
2019-03-29T08:57:37.298Z,100701.37
2019-03-29T09:00:07.517Z,100696.16
2019-03-29T09:02:34.069Z,100691.16
2019-03-29T09:05:00.377Z,100689.83
2019-03-29T09:07:28.127Z,100699.42
2019-03-29T09:09:54.464Z,100691.98
2019-03-29T09:12:20.620Z,100701.53
2019-03-29T09:14:46.909Z,100681.94
2019-03-29T09:17:13.062Z,100678.09
2019-03-29T09:19:39.279Z,100680.55
2019-03-29T09:22:05.483Z,100685.21
2019-03-29T09:24:31.632Z,100684.45
2019-03-29T09:26:57.888Z,100677.80
2019-03-29T09:29:24.181Z,100673.11
2019-03-29T09:31:50.337Z,100679.53
2019-03-29T09:34:16.503Z,100681.19
2019-03-29T09:36:42.692Z,100672.28
2019-03-29T09:39:08.853Z,100664.30
2019-03-29T09:44:01.039Z,100663.95
2019-03-29T09:46:27.246Z,100667.06
2019-03-29T09:48:53.461Z,100655.33
2019-03-29T09:51:19.669Z,100657.66
2019-03-29T09:53:45.819Z,100651.13
2019-03-29T09:56:11.987Z,100651.04
2019-03-29T09:58:39.322Z,100650.11
2019-03-29T10:01:05.481Z,100655.55
2019-03-29T10:03:31.657Z,100645.92
2019-03-29T10:05:57.945Z,100648.52
2019-03-29T10:08:24.098Z,100648.67
2019-03-29T10:10:50.263Z,100643.94
2019-03-29T10:13:16.664Z,100655.75
2019-03-29T10:15:42.843Z,100647.80
2019-03-29T10:18:08.978Z,100642.32
2019-03-29T10:20:35.171Z,100644.09
2019-03-29T10:23:01.330Z,100644.24
2019-03-29T10:25:27.492Z,100643.70
2019-03-29T10:27:53.807Z,100639.80
2019-03-29T10:30:26.248Z,100629.11
2019-03-29T10:32:55.369Z,100627.25
2019-03-29T10:35:20.509Z,100631.21
2019-03-29T10:37:46.774Z,100634.06
2019-03-29T10:40:12.927Z,100628.11
2019-03-29T10:42:40.311Z,100628.19
2019-03-29T10:45:06.811Z,100616.27
2019-03-29T10:47:43.109Z,100620.26
2019-03-29T10:50:01.131Z,100609.42
2019-03-29T10:52:27.282Z,100604.45
2019-03-29T10:54:53.439Z,100610.28
2019-03-29T10:57:19.622Z,100609.38
2019-03-29T10:59:46.475Z,100608.34
2019-03-29T11:02:12.642Z,100622.52
2019-03-29T11:04:38.845Z,100617.25
2019-03-29T11:07:05.112Z,100608.55
2019-03-29T11:09:31.367Z,100602.67
2019-03-29T11:11:57.655Z,100611.71
2019-03-29T11:14:23.824Z,100605.00
2019-03-29T11:16:50.083Z,100610.83
2019-03-29T11:19:16.278Z,100597.16
2019-03-29T11:21:42.452Z,100600.75
2019-03-29T11:24:09.328Z,100602.47
2019-03-29T11:26:35.787Z,100605.66
2019-03-29T11:29:01.943Z,100592.94
2019-03-29T11:31:28.109Z,100593.76
2019-03-29T11:33:54.288Z,100594.07
2019-03-29T11:36:20.451Z,100581.79
2019-03-29T11:38:46.730Z,100577.11
2019-03-29T11:41:12.908Z,100569.37
2019-03-29T11:43:39.067Z,100570.06
2019-03-29T11:46:05.337Z,100573.80
2019-03-29T11:48:31.540Z,100571.41
2019-03-29T11:50:57.699Z,100577.58
2019-03-29T11:53:23.983Z,100569.81
2019-03-29T11:55:50.164Z,100560.36
2019-03-29T11:58:16.327Z,100568.91
2019-03-29T12:00:42.583Z,100568.95
2019-03-29T12:03:09.908Z,100571.50
2019-03-29T12:05:36.577Z,100569.45
2019-03-29T12:08:03.713Z,100569.90
2019-03-29T12:10:29.911Z,100564.36
2019-03-29T12:12:56.067Z,100551.23
2019-03-29T12:15:22.523Z,100547.68
2019-03-29T12:17:48.824Z,100558.55
2019-03-29T12:20:15.089Z,100544.02
2019-03-29T12:22:41.245Z,100547.46
2019-03-29T12:25:07.951Z,100551.60
2019-03-29T12:27:34.206Z,100553.31
2019-03-29T12:30:00.405Z,100550.86
2019-03-29T12:32:26.651Z,100548.55
2019-03-29T12:34:52.925Z,100546.28
2019-03-29T12:37:19.083Z,100547.60
2019-03-29T12:39:45.280Z,100536.16
2019-03-29T12:42:11.436Z,100540.23
2019-03-29T12:44:37.583Z,100535.73
2019-03-29T12:47:03.796Z,100536.73
2019-03-29T12:49:29.948Z,100539.56
2019-03-29T12:51:56.110Z,100534.00
2019-03-29T12:54:22.376Z,100533.58
2019-03-29T12:56:48.575Z,100536.45
2019-03-29T12:59:14.774Z,100540.96
2019-03-29T13:01:41.764Z,100545.99
2019-03-29T13:04:09.767Z,100541.64
2019-03-29T13:06:35.984Z,100545.09
2019-03-29T13:09:04.073Z,100540.89
2019-03-29T13:11:30.329Z,100527.69
2019-03-29T13:14:09.387Z,100526.17
2019-03-29T13:16:27.413Z,100526.77
2019-03-29T13:18:53.774Z,100528.23
2019-03-29T13:21:20.141Z,100526.25
2019-03-29T13:23:46.334Z,100529.80
2019-03-29T13:26:12.560Z,100520.23
2019-03-29T13:28:38.844Z,100534.54
2019-03-29T13:31:05.039Z,100528.96
2019-03-29T13:33:31.234Z,100527.89
2019-03-29T13:35:57.471Z,100520.23
2019-03-29T13:38:23.749Z,100513.98
2019-03-29T13:40:49.907Z,100529.45
2019-03-29T13:43:16.054Z,100522.05
2019-03-29T13:45:42.276Z,100516.53
2019-03-29T13:48:09.996Z,100507.45
2019-03-29T13:50:36.158Z,100503.50
2019-03-29T13:53:02.344Z,100514.72
2019-03-29T13:55:28.603Z,100518.27
2019-03-29T13:57:54.761Z,100515.16
2019-03-29T14:00:21.076Z,100503.73
2019-03-29T14:02:47.239Z,100501.36
2019-03-29T14:05:13.438Z,100505.20
2019-03-29T14:07:39.694Z,100510.63
2019-03-29T14:10:07.666Z,100515.13
2019-03-29T14:12:33.847Z,100524.20
2019-03-29T14:15:01.421Z,100518.67
2019-03-29T14:17:28.077Z,100512.42
2019-03-29T14:19:54.237Z,100507.73
2019-03-29T14:22:20.434Z,100508.97
2019-03-29T14:24:46.592Z,100514.07
2019-03-29T14:27:12.740Z,100505.55
2019-03-29T14:29:38.923Z,100506.69
2019-03-29T14:32:05.102Z,100496.94
2019-03-29T14:34:31.250Z,100487.87
2019-03-29T14:36:59.360Z,100488.13
2019-03-29T14:39:25.603Z,100483.45
2019-03-29T14:41:51.760Z,100489.95
2019-03-29T14:44:17.965Z,100493.78
2019-03-29T14:46:44.223Z,100499.59
2019-03-29T14:49:10.375Z,100494.59
2019-03-29T14:51:36.568Z,100497.60
2019-03-29T14:54:02.831Z,100500.85
2019-03-29T14:56:29.081Z,100494.88
2019-03-29T14:58:55.269Z,100491.16
2019-03-29T15:01:21.430Z,100498.03
2019-03-29T15:03:47.790Z,100493.09
2019-03-29T15:06:14.085Z,100498.53
2019-03-29T15:08:40.242Z,100503.53
2019-03-29T15:11:06.483Z,100499.25
2019-03-29T15:13:32.676Z,100495.19
2019-03-29T15:15:58.927Z,100493.55
2019-03-29T15:18:25.094Z,100503.45
2019-03-29T15:20:53.873Z,100503.47
2019-03-29T15:23:19.754Z,100497.52
2019-03-29T15:25:45.915Z,100493.66
2019-03-29T15:28:12.189Z,100500.97
2019-03-29T15:30:38.385Z,100504.05
2019-03-29T15:33:04.552Z,100500.73
2019-03-29T15:35:30.770Z,100493.00
2019-03-29T15:37:56.931Z,100499.96
2019-03-29T15:40:23.086Z,100503.27
2019-03-29T15:42:49.428Z,100500.34
2019-03-29T15:45:20.802Z,100501.52
2019-03-29T15:47:43.736Z,100495.70
2019-03-29T15:50:09.932Z,100494.67
2019-03-29T15:52:36.079Z,100496.91
2019-03-29T15:55:04.885Z,100493.11
2019-03-29T15:57:31.055Z,100487.80
2019-03-29T15:59:57.202Z,100490.11
2019-03-29T16:02:23.365Z,100485.71
2019-03-29T16:04:49.702Z,100487.61
2019-03-29T16:07:15.858Z,100491.79
2019-03-29T16:09:42.024Z,100489.89
2019-03-29T16:12:08.217Z,100494.62
2019-03-29T16:14:34.380Z,100498.80
2019-03-29T16:17:00.647Z,100501.83
2019-03-29T16:19:26.876Z,100492.84
2019-03-29T16:21:53.044Z,100494.61
2019-03-29T16:24:19.201Z,100484.23
2019-03-29T16:26:45.390Z,100486.13
2019-03-29T16:29:11.559Z,100478.89
2019-03-29T16:31:37.824Z,100476.16
2019-03-29T16:34:04.038Z,100479.13
2019-03-29T16:36:30.208Z,100480.84
2019-03-29T16:38:56.372Z,100483.94
2019-03-29T16:41:22.577Z,100484.86
2019-03-29T16:43:48.741Z,100484.45
2019-03-29T16:46:15.000Z,100492.40
2019-03-29T16:48:41.300Z,100486.65
2019-03-29T16:51:08.498Z,100483.83
2019-03-29T16:53:34.663Z,100486.66
2019-03-29T16:56:00.855Z,100481.22
2019-03-29T16:58:27.020Z,100481.44
2019-03-29T17:00:53.300Z,100481.83
2019-03-29T17:03:19.489Z,100481.11
2019-03-29T17:05:45.705Z,100479.53
2019-03-29T17:08:11.866Z,100476.30
2019-03-29T17:10:38.147Z,100478.39
2019-03-29T17:13:04.306Z,100483.72
2019-03-29T17:15:30.474Z,100481.63
2019-03-29T17:17:56.687Z,100481.63
2019-03-29T17:20:22.841Z,100480.89
2019-03-29T17:22:49.019Z,100481.42
2019-03-29T17:25:15.222Z,100479.11
2019-03-29T17:27:41.378Z,100482.16
2019-03-29T17:30:08.646Z,100481.52
2019-03-29T17:32:34.844Z,100481.53
2019-03-29T17:35:01.013Z,100481.30
2019-03-29T17:37:27.200Z,100484.55
2019-03-29T17:39:53.510Z,100484.45
2019-03-29T17:42:19.759Z,100487.40
2019-03-29T17:44:46.199Z,100488.03
2019-03-29T17:47:12.524Z,100486.66
2019-03-29T17:49:38.795Z,100485.92
2019-03-29T17:52:05.096Z,100490.73
2019-03-29T17:54:31.315Z,100487.70
2019-03-29T17:56:57.482Z,100488.87
2019-03-29T17:59:23.644Z,100495.03
2019-03-29T18:01:49.957Z,100496.48
2019-03-29T18:04:16.127Z,100503.80
2019-03-29T18:06:42.387Z,100497.85
2019-03-29T18:09:08.592Z,100499.23
2019-03-29T18:11:35.348Z,100498.59
2019-03-29T18:14:01.507Z,100501.73
2019-03-29T18:16:30.938Z,100504.25
2019-03-29T18:18:55.882Z,100501.00
2019-03-29T18:21:22.143Z,100504.15
2019-03-29T18:23:48.651Z,100505.80
2019-03-29T18:26:14.808Z,100509.48
2019-03-29T18:28:40.975Z,100514.20
2019-03-29T18:31:07.379Z,100513.97
2019-03-29T18:33:34.143Z,100506.84
2019-03-29T18:36:01.118Z,100509.89
2019-03-29T18:38:29.005Z,100513.88
2019-03-29T18:40:55.278Z,100516.06
2019-03-29T18:43:21.437Z,100521.50
2019-03-29T18:45:47.639Z,100520.26
2019-03-29T18:48:13.806Z,100519.61
2019-03-29T18:50:39.968Z,100518.80
2019-03-29T18:53:06.163Z,100526.87
2019-03-29T18:55:32.330Z,100524.55
2019-03-29T18:57:58.499Z,100521.64
2019-03-29T19:00:30.740Z,100520.36
2019-03-29T19:02:56.910Z,100518.66
2019-03-29T19:05:24.579Z,100519.63
2019-03-29T19:07:50.821Z,100519.39
2019-03-29T19:10:17.031Z,100523.12
2019-03-29T19:12:43.201Z,100521.08
2019-03-29T19:15:09.402Z,100526.08
2019-03-29T19:17:35.565Z,100530.64
2019-03-29T19:20:01.730Z,100527.50
2019-03-29T19:22:28.065Z,100529.30
2019-03-29T19:24:54.597Z,100527.67
2019-03-29T19:27:20.768Z,100532.39
2019-03-29T19:29:47.257Z,100533.52
2019-03-29T19:32:14.154Z,100542.03
2019-03-29T19:34:40.487Z,100544.55
2019-03-29T19:37:06.698Z,100543.82
2019-03-29T19:39:32.861Z,100539.03
2019-03-29T19:41:59.022Z,100545.84
2019-03-29T19:44:25.222Z,100548.86
2019-03-29T19:46:51.378Z,100543.19
2019-03-29T19:49:17.551Z,100541.62
2019-03-29T19:51:43.745Z,100551.95
2019-03-29T19:54:09.910Z,100550.33
2019-03-29T19:56:36.092Z,100552.78
2019-03-29T19:59:02.395Z,100558.63
2019-03-29T20:01:28.739Z,100560.86
2019-03-29T20:03:54.934Z,100553.00
2019-03-29T20:06:21.103Z,100551.95
2019-03-29T20:08:47.262Z,100553.77
2019-03-29T20:11:13.425Z,100556.95
2019-03-29T20:13:39.728Z,100556.84
2019-03-29T20:16:05.895Z,100556.91
2019-03-29T20:18:32.056Z,100554.64
2019-03-29T20:20:58.263Z,100563.62
2019-03-29T20:23:24.448Z,100559.61
2019-03-29T20:25:50.728Z,100565.19
2019-03-29T20:28:16.966Z,100561.40
2019-03-29T20:30:43.176Z,100560.57
2019-03-29T20:33:09.252Z,100562.09
2019-03-29T20:35:35.468Z,100554.75
2019-03-29T20:38:01.648Z,100558.47
2019-03-29T20:40:27.831Z,100555.11
2019-03-29T20:42:54.060Z,100550.62
2019-03-29T20:45:20.284Z,100550.11
2019-03-29T20:47:46.459Z,100553.76
2019-03-29T20:50:13.160Z,100554.37
2019-03-29T20:52:39.344Z,100560.88
2019-03-29T20:55:06.726Z,100556.69
2019-03-29T20:57:32.941Z,100560.45
2019-03-29T20:59:59.119Z,100565.28
2019-03-29T21:02:25.309Z,100564.70
2019-03-29T21:04:51.519Z,100573.77
2019-03-29T21:07:17.708Z,100568.11
2019-03-29T21:09:43.986Z,100562.97
2019-03-29T21:12:10.200Z,100565.08
2019-03-29T21:14:36.380Z,100568.93
2019-03-29T21:17:02.654Z,100567.89
2019-03-29T21:19:28.889Z,100564.84
2019-03-29T21:21:55.068Z,100567.25
2019-03-29T21:24:21.560Z,100566.50
2019-03-29T21:26:47.786Z,100566.02
2019-03-29T21:29:14.064Z,100566.09
2019-03-29T21:31:40.240Z,100562.45
2019-03-29T21:34:06.454Z,100558.66
2019-03-29T21:36:32.625Z,100567.25
2019-03-29T21:38:58.801Z,100559.22
2019-03-29T21:41:25.033Z,100561.63
2019-03-29T21:43:51.228Z,100552.02
2019-03-29T21:46:17.414Z,100562.80
2019-03-29T21:48:43.644Z,100561.08
2019-03-29T21:51:09.807Z,100556.36
2019-03-29T21:53:35.988Z,100562.73
2019-03-29T21:56:02.243Z,100562.63
2019-03-29T21:58:28.420Z,100567.34
2019-03-29T22:00:54.592Z,100568.17
2019-03-29T22:03:20.793Z,100559.09
2019-03-29T22:05:47.421Z,100555.05
2019-03-29T22:08:13.868Z,100548.01
2019-03-29T22:10:40.150Z,100552.31
2019-03-29T22:13:06.318Z,100540.37
2019-03-29T22:15:32.504Z,100541.84
2019-03-29T22:17:58.705Z,100546.64
2019-03-29T22:20:24.880Z,100544.94
2019-03-29T22:22:51.053Z,100543.50
2019-03-29T22:25:19.152Z,100540.59
2019-03-29T22:27:45.435Z,100542.22
2019-03-29T22:30:11.720Z,100542.06
2019-03-29T22:32:37.939Z,100548.48
2019-03-29T22:35:05.914Z,100541.02
2019-03-29T22:37:32.103Z,100543.52
2019-03-29T22:39:58.345Z,100543.72
2019-03-29T22:42:24.620Z,100544.72
2019-03-29T22:44:50.804Z,100542.97
2019-03-29T22:47:17.016Z,100535.22
2019-03-29T22:49:43.200Z,100532.12
2019-03-29T22:52:09.365Z,100527.41
2019-03-29T22:54:35.598Z,100530.54
2019-03-29T22:57:01.779Z,100520.47
2019-03-29T22:59:27.968Z,100521.31
2019-03-29T23:01:54.198Z,100517.52
2019-03-29T23:04:20.553Z,100512.22
2019-03-29T23:06:46.728Z,100523.41
2019-03-29T23:09:12.936Z,100517.63
2019-03-29T23:11:39.178Z,100520.14
2019-03-29T23:14:05.358Z,100517.01
2019-03-29T23:16:31.574Z,100520.35
2019-03-29T23:19:06.325Z,100508.47
2019-03-29T23:21:25.821Z,100507.94
2019-03-29T23:23:52.008Z,100516.31
2019-03-29T23:26:18.170Z,100511.48
2019-03-29T23:28:44.341Z,100505.14
2019-03-29T23:31:10.540Z,100515.25
2019-03-29T23:33:36.710Z,100506.09
2019-03-29T23:36:02.866Z,100506.03
2019-03-29T23:38:29.085Z,100513.51
2019-03-29T23:40:55.248Z,100508.44
2019-03-29T23:43:21.503Z,100511.50
2019-03-29T23:45:47.798Z,100512.83
2019-03-29T23:48:13.959Z,100507.08
2019-03-29T23:50:40.018Z,100506.05
2019-03-29T23:53:06.220Z,100509.84
2019-03-29T23:55:32.376Z,100506.76
2019-03-29T23:57:58.544Z,100502.63
